Aviation Digital Data Service (ADDS)

Output produced by METARs form (0117 UTC 16 January 2019)
found at http://www.aviationweather.gov/metar/data/
 
TAF MDST 152200Z 1600/1624 12010KT 9999 FEW022 
     BECMG 0604/1606 00000KT
       
TAF MDPP 152200Z 1600/1624 06010KT 9999 FEW022 
     BECMG 1601/1603 00000KT
       
TAF MDLR 152200Z 1600/1624 00000KT 9999 SCT018
       
TAF MDSD 152200Z 1600/1624 14004KT 9999 FEW018 
     BECMG 1602/1604 03004KT
       
TAF MDBH 152200Z 1600/1624 13010KT 9999 SCT020 
     BECMG 1605/1607 00000KT
       
TAF MDPC 152200Z 1600/1624 07010KT 9999 FEW022 
     BECMG 1602/1604 00000KT